sensor_id;sensor_type;location;lat;lon;timestamp;P1;durP1;ratioP1;P2;durP2;ratioP2
52456;SDS011;38369;52.840;7.082;2022-08-21T00:01:26;12.05;;;6.03;;
52456;SDS011;38369;52.840;7.082;2022-08-21T00:03:53;17.23;;;6.63;;
52456;SDS011;38369;52.840;7.082;2022-08-21T00:06:19;7.80;;;5.95;;
52456;SDS011;38369;52.840;7.082;2022-08-21T00:08:46;10.77;;;5.47;;
52456;SDS011;38369;52.840;7.082;2022-08-21T00:11:12;11.75;;;5.85;;
52456;SDS011;38369;52.840;7.082;2022-08-21T00:13:38;7.78;;;4.90;;
52456;SDS011;38369;52.840;7.082;2022-08-21T00:16:05;7.82;;;6.20;;
52456;SDS011;38369;52.840;7.082;2022-08-21T00:18:31;8.85;;;5.90;;
52456;SDS011;38369;52.840;7.082;2022-08-21T00:20:57;9.43;;;6.78;;
52456;SDS011;38369;52.840;7.082;2022-08-21T00:23:23;7.95;;;4.80;;
52456;SDS011;38369;52.840;7.082;2022-08-21T00:25:49;11.50;;;5.82;;
52456;SDS011;38369;52.840;7.082;2022-08-21T00:28:15;12.13;;;6.80;;
52456;SDS011;38369;52.840;7.082;2022-08-21T00:30:42;11.88;;;6.60;;
52456;SDS011;38369;52.840;7.082;2022-08-21T00:33:09;8.57;;;5.85;;
52456;SDS011;38369;52.840;7.082;2022-08-21T00:35:37;10.65;;;6.57;;
52456;SDS011;38369;52.840;7.082;2022-08-21T00:38:04;11.75;;;6.85;;
52456;SDS011;38369;52.840;7.082;2022-08-21T00:40:32;11.48;;;6.85;;
52456;SDS011;38369;52.840;7.082;2022-08-21T00:43:00;17.10;;;8.35;;
52456;SDS011;38369;52.840;7.082;2022-08-21T00:45:27;20.58;;;8.40;;
52456;SDS011;38369;52.840;7.082;2022-08-21T00:47:53;10.15;;;7.47;;
52456;SDS011;38369;52.840;7.082;2022-08-21T00:50:20;17.17;;;7.93;;
52456;SDS011;38369;52.840;7.082;2022-08-21T00:52:46;15.40;;;8.23;;
52456;SDS011;38369;52.840;7.082;2022-08-21T00:55:12;13.20;;;8.57;;
52456;SDS011;38369;52.840;7.082;2022-08-21T00:57:41;14.77;;;8.55;;
52456;SDS011;38369;52.840;7.082;2022-08-21T01:00:16;13.40;;;8.95;;
52456;SDS011;38369;52.840;7.082;2022-08-21T01:02:42;12.95;;;7.85;;
52456;SDS011;38369;52.840;7.082;2022-08-21T01:05:09;12.20;;;8.32;;
52456;SDS011;38369;52.840;7.082;2022-08-21T01:07:35;10.43;;;7.82;;
52456;SDS011;38369;52.840;7.082;2022-08-21T01:10:03;17.55;;;8.65;;
52456;SDS011;38369;52.840;7.082;2022-08-21T01:12:30;11.32;;;7.90;;
52456;SDS011;38369;52.840;7.082;2022-08-21T01:14:56;14.40;;;9.02;;
52456;SDS011;38369;52.840;7.082;2022-08-21T01:17:23;16.95;;;8.95;;
52456;SDS011;38369;52.840;7.082;2022-08-21T01:19:50;12.88;;;8.50;;
52456;SDS011;38369;52.840;7.082;2022-08-21T01:22:16;16.45;;;8.77;;
52456;SDS011;38369;52.840;7.082;2022-08-21T01:24:42;13.15;;;8.20;;
52456;SDS011;38369;52.840;7.082;2022-08-21T01:27:08;10.27;;;6.78;;
52456;SDS011;38369;52.840;7.082;2022-08-21T01:29:41;9.43;;;6.07;;
52456;SDS011;38369;52.840;7.082;2022-08-21T01:32:10;7.82;;;5.78;;
52456;SDS011;38369;52.840;7.082;2022-08-21T01:34:38;10.52;;;6.07;;
52456;SDS011;38369;52.840;7.082;2022-08-21T01:37:04;10.20;;;6.63;;
52456;SDS011;38369;52.840;7.082;2022-08-21T01:39:31;11.82;;;7.22;;
52456;SDS011;38369;52.840;7.082;2022-08-21T01:41:57;10.95;;;7.57;;
52456;SDS011;38369;52.840;7.082;2022-08-21T01:44:23;9.95;;;8.07;;
52456;SDS011;38369;52.840;7.082;2022-08-21T01:46:49;10.45;;;7.78;;
52456;SDS011;38369;52.840;7.082;2022-08-21T01:49:16;12.27;;;8.30;;
52456;SDS011;38369;52.840;7.082;2022-08-21T01:51:42;13.77;;;9.02;;
52456;SDS011;38369;52.840;7.082;2022-08-21T01:54:08;16.75;;;8.48;;
52456;SDS011;38369;52.840;7.082;2022-08-21T01:56:35;14.75;;;7.68;;
52456;SDS011;38369;52.840;7.082;2022-08-21T01:59:01;11.68;;;8.57;;
52456;SDS011;38369;52.840;7.082;2022-08-21T02:01:27;14.45;;;7.90;;
52456;SDS011;38369;52.840;7.082;2022-08-21T02:03:53;9.40;;;7.30;;
52456;SDS011;38369;52.840;7.082;2022-08-21T02:06:20;12.05;;;7.80;;
52456;SDS011;38369;52.840;7.082;2022-08-21T02:08:47;9.43;;;7.03;;
52456;SDS011;38369;52.840;7.082;2022-08-21T02:11:15;14.73;;;7.35;;
52456;SDS011;38369;52.840;7.082;2022-08-21T02:13:41;10.20;;;6.97;;
52456;SDS011;38369;52.840;7.082;2022-08-21T02:16:07;10.73;;;7.15;;
52456;SDS011;38369;52.840;7.082;2022-08-21T02:18:34;13.30;;;7.45;;
52456;SDS011;38369;52.840;7.082;2022-08-21T02:21:00;13.98;;;7.95;;
52456;SDS011;38369;52.840;7.082;2022-08-21T02:23:26;9.57;;;7.20;;
52456;SDS011;38369;52.840;7.082;2022-08-21T02:25:52;13.90;;;9.13;;
52456;SDS011;38369;52.840;7.082;2022-08-21T02:28:18;9.77;;;7.32;;
52456;SDS011;38369;52.840;7.082;2022-08-21T02:30:45;13.77;;;8.18;;
52456;SDS011;38369;52.840;7.082;2022-08-21T02:33:11;11.65;;;7.38;;
52456;SDS011;38369;52.840;7.082;2022-08-21T02:35:38;10.07;;;7.45;;
52456;SDS011;38369;52.840;7.082;2022-08-21T02:38:08;13.38;;;7.57;;
52456;SDS011;38369;52.840;7.082;2022-08-21T02:40:35;17.60;;;8.45;;
52456;SDS011;38369;52.840;7.082;2022-08-21T02:43:03;14.02;;;8.80;;
52456;SDS011;38369;52.840;7.082;2022-08-21T02:45:30;15.50;;;8.65;;
52456;SDS011;38369;52.840;7.082;2022-08-21T02:47:58;12.82;;;8.73;;
52456;SDS011;38369;52.840;7.082;2022-08-21T02:50:34;11.88;;;7.65;;
52456;SDS011;38369;52.840;7.082;2022-08-21T02:53:00;13.95;;;7.55;;
52456;SDS011;38369;52.840;7.082;2022-08-21T02:55:28;8.95;;;6.57;;
52456;SDS011;38369;52.840;7.082;2022-08-21T02:57:55;14.57;;;7.55;;
52456;SDS011;38369;52.840;7.082;2022-08-21T03:00:22;10.35;;;8.07;;
52456;SDS011;38369;52.840;7.082;2022-08-21T03:02:48;13.48;;;9.15;;
52456;SDS011;38369;52.840;7.082;2022-08-21T03:05:15;12.43;;;7.93;;
52456;SDS011;38369;52.840;7.082;2022-08-21T03:07:42;11.70;;;8.18;;
52456;SDS011;38369;52.840;7.082;2022-08-21T03:10:09;10.27;;;8.13;;
52456;SDS011;38369;52.840;7.082;2022-08-21T03:12:35;13.80;;;8.57;;
52456;SDS011;38369;52.840;7.082;2022-08-21T03:15:03;12.18;;;8.10;;
52456;SDS011;38369;52.840;7.082;2022-08-21T03:17:29;16.05;;;8.43;;
52456;SDS011;38369;52.840;7.082;2022-08-21T03:19:56;11.98;;;8.13;;
52456;SDS011;38369;52.840;7.082;2022-08-21T03:22:22;17.58;;;9.65;;
52456;SDS011;38369;52.840;7.082;2022-08-21T03:24:48;22.25;;;11.43;;
52456;SDS011;38369;52.840;7.082;2022-08-21T03:27:14;17.15;;;10.45;;
52456;SDS011;38369;52.840;7.082;2022-08-21T03:29:40;20.08;;;11.23;;
52456;SDS011;38369;52.840;7.082;2022-08-21T03:32:07;15.10;;;12.27;;
52456;SDS011;38369;52.840;7.082;2022-08-21T03:34:36;17.77;;;12.13;;
52456;SDS011;38369;52.840;7.082;2022-08-21T03:37:03;18.17;;;11.70;;
52456;SDS011;38369;52.840;7.082;2022-08-21T03:39:29;16.98;;;12.00;;
52456;SDS011;38369;52.840;7.082;2022-08-21T03:41:55;17.00;;;12.05;;
52456;SDS011;38369;52.840;7.082;2022-08-21T03:44:21;17.23;;;12.57;;
52456;SDS011;38369;52.840;7.082;2022-08-21T03:46:47;19.85;;;12.40;;
52456;SDS011;38369;52.840;7.082;2022-08-21T03:49:14;16.48;;;12.32;;
52456;SDS011;38369;52.840;7.082;2022-08-21T03:51:40;16.25;;;12.05;;
52456;SDS011;38369;52.840;7.082;2022-08-21T03:54:06;17.27;;;11.30;;
52456;SDS011;38369;52.840;7.082;2022-08-21T03:56:32;18.10;;;11.13;;
52456;SDS011;38369;52.840;7.082;2022-08-21T03:58:58;13.70;;;9.88;;
52456;SDS011;38369;52.840;7.082;2022-08-21T04:01:24;14.13;;;10.15;;
52456;SDS011;38369;52.840;7.082;2022-08-21T04:03:50;15.00;;;11.45;;
52456;SDS011;38369;52.840;7.082;2022-08-21T04:06:16;17.20;;;10.88;;
52456;SDS011;38369;52.840;7.082;2022-08-21T04:08:43;15.65;;;10.90;;
52456;SDS011;38369;52.840;7.082;2022-08-21T04:11:09;23.23;;;13.18;;
52456;SDS011;38369;52.840;7.082;2022-08-21T04:13:38;18.63;;;12.65;;
52456;SDS011;38369;52.840;7.082;2022-08-21T04:16:05;18.98;;;12.40;;
52456;SDS011;38369;52.840;7.082;2022-08-21T04:18:31;30.38;;;14.95;;
52456;SDS011;38369;52.840;7.082;2022-08-21T04:20:57;18.52;;;13.73;;
52456;SDS011;38369;52.840;7.082;2022-08-21T04:23:24;23.23;;;15.13;;
52456;SDS011;38369;52.840;7.082;2022-08-21T04:25:54;14.15;;;12.63;;
52456;SDS011;38369;52.840;7.082;2022-08-21T04:28:21;18.13;;;12.95;;
52456;SDS011;38369;52.840;7.082;2022-08-21T04:30:47;19.17;;;13.68;;
52456;SDS011;38369;52.840;7.082;2022-08-21T04:33:15;16.95;;;13.10;;
52456;SDS011;38369;52.840;7.082;2022-08-21T04:35:41;19.02;;;12.93;;
52456;SDS011;38369;52.840;7.082;2022-08-21T04:38:07;19.85;;;13.95;;
52456;SDS011;38369;52.840;7.082;2022-08-21T04:40:33;20.17;;;12.98;;
52456;SDS011;38369;52.840;7.082;2022-08-21T04:43:07;19.27;;;12.68;;
52456;SDS011;38369;52.840;7.082;2022-08-21T04:45:38;23.60;;;15.90;;
52456;SDS011;38369;52.840;7.082;2022-08-21T04:48:05;20.02;;;13.93;;
52456;SDS011;38369;52.840;7.082;2022-08-21T04:50:38;17.85;;;15.00;;
52456;SDS011;38369;52.840;7.082;2022-08-21T04:53:05;19.65;;;14.77;;
52456;SDS011;38369;52.840;7.082;2022-08-21T04:55:33;18.42;;;13.63;;
52456;SDS011;38369;52.840;7.082;2022-08-21T04:57:59;22.65;;;14.50;;
52456;SDS011;38369;52.840;7.082;2022-08-21T05:00:25;18.27;;;14.57;;
52456;SDS011;38369;52.840;7.082;2022-08-21T05:02:52;18.00;;;14.27;;
52456;SDS011;38369;52.840;7.082;2022-08-21T05:05:21;21.80;;;16.63;;
52456;SDS011;38369;52.840;7.082;2022-08-21T05:07:47;20.60;;;14.93;;
52456;SDS011;38369;52.840;7.082;2022-08-21T05:10:15;19.45;;;15.38;;
52456;SDS011;38369;52.840;7.082;2022-08-21T05:12:41;23.08;;;15.52;;
52456;SDS011;38369;52.840;7.082;2022-08-21T05:15:08;18.85;;;13.15;;
52456;SDS011;38369;52.840;7.082;2022-08-21T05:17:34;17.30;;;14.07;;
52456;SDS011;38369;52.840;7.082;2022-08-21T05:20:00;24.27;;;15.85;;
52456;SDS011;38369;52.840;7.082;2022-08-21T05:22:26;18.05;;;14.55;;
52456;SDS011;38369;52.840;7.082;2022-08-21T05:24:53;20.00;;;15.32;;
52456;SDS011;38369;52.840;7.082;2022-08-21T05:27:19;18.30;;;14.13;;
52456;SDS011;38369;52.840;7.082;2022-08-21T05:29:45;19.48;;;13.88;;
52456;SDS011;38369;52.840;7.082;2022-08-21T05:32:11;18.05;;;14.55;;
52456;SDS011;38369;52.840;7.082;2022-08-21T05:34:38;18.92;;;12.90;;
52456;SDS011;38369;52.840;7.082;2022-08-21T05:37:04;18.13;;;13.38;;
52456;SDS011;38369;52.840;7.082;2022-08-21T05:39:30;17.25;;;13.45;;
52456;SDS011;38369;52.840;7.082;2022-08-21T05:41:57;16.40;;;12.52;;
52456;SDS011;38369;52.840;7.082;2022-08-21T05:44:23;19.52;;;13.65;;
52456;SDS011;38369;52.840;7.082;2022-08-21T05:46:49;19.55;;;13.18;;
52456;SDS011;38369;52.840;7.082;2022-08-21T05:49:15;24.33;;;13.02;;
52456;SDS011;38369;52.840;7.082;2022-08-21T05:51:41;19.17;;;13.27;;
52456;SDS011;38369;52.840;7.082;2022-08-21T05:54:07;17.55;;;12.48;;
52456;SDS011;38369;52.840;7.082;2022-08-21T05:56:33;16.88;;;11.93;;
52456;SDS011;38369;52.840;7.082;2022-08-21T05:58:59;20.38;;;13.68;;
52456;SDS011;38369;52.840;7.082;2022-08-21T06:01:25;25.15;;;13.88;;
52456;SDS011;38369;52.840;7.082;2022-08-21T06:03:52;15.50;;;12.52;;
52456;SDS011;38369;52.840;7.082;2022-08-21T06:06:18;19.83;;;12.43;;
52456;SDS011;38369;52.840;7.082;2022-08-21T06:08:44;20.73;;;13.65;;
52456;SDS011;38369;52.840;7.082;2022-08-21T06:11:10;20.95;;;14.55;;
52456;SDS011;38369;52.840;7.082;2022-08-21T06:13:37;15.68;;;12.45;;
52456;SDS011;38369;52.840;7.082;2022-08-21T06:16:05;14.95;;;12.63;;
52456;SDS011;38369;52.840;7.082;2022-08-21T06:18:32;16.42;;;11.40;;
52456;SDS011;38369;52.840;7.082;2022-08-21T06:20:58;15.43;;;10.45;;
52456;SDS011;38369;52.840;7.082;2022-08-21T06:23:24;13.85;;;10.88;;
52456;SDS011;38369;52.840;7.082;2022-08-21T06:25:50;17.40;;;13.60;;
52456;SDS011;38369;52.840;7.082;2022-08-21T06:28:17;15.80;;;11.50;;
52456;SDS011;38369;52.840;7.082;2022-08-21T06:30:43;16.50;;;11.20;;
52456;SDS011;38369;52.840;7.082;2022-08-21T06:33:09;16.05;;;11.75;;
52456;SDS011;38369;52.840;7.082;2022-08-21T06:35:35;17.05;;;11.60;;
52456;SDS011;38369;52.840;7.082;2022-08-21T06:38:02;16.92;;;11.90;;
52456;SDS011;38369;52.840;7.082;2022-08-21T06:40:29;16.77;;;11.02;;
52456;SDS011;38369;52.840;7.082;2022-08-21T06:42:56;18.05;;;10.77;;
52456;SDS011;38369;52.840;7.082;2022-08-21T06:45:23;14.68;;;10.02;;
52456;SDS011;38369;52.840;7.082;2022-08-21T06:47:49;15.30;;;10.77;;
52456;SDS011;38369;52.840;7.082;2022-08-21T06:50:15;13.45;;;9.30;;
52456;SDS011;38369;52.840;7.082;2022-08-21T06:52:41;13.05;;;9.10;;
52456;SDS011;38369;52.840;7.082;2022-08-21T06:55:08;15.32;;;8.65;;
52456;SDS011;38369;52.840;7.082;2022-08-21T06:57:34;12.80;;;8.25;;
52456;SDS011;38369;52.840;7.082;2022-08-21T07:00:02;11.43;;;8.07;;
52456;SDS011;38369;52.840;7.082;2022-08-21T07:02:29;14.45;;;7.85;;
52456;SDS011;38369;52.840;7.082;2022-08-21T07:04:55;13.90;;;8.88;;
52456;SDS011;38369;52.840;7.082;2022-08-21T07:07:21;15.70;;;8.75;;
52456;SDS011;38369;52.840;7.082;2022-08-21T07:09:47;12.77;;;8.60;;
52456;SDS011;38369;52.840;7.082;2022-08-21T07:12:14;13.20;;;8.40;;
52456;SDS011;38369;52.840;7.082;2022-08-21T07:14:40;15.95;;;8.65;;
52456;SDS011;38369;52.840;7.082;2022-08-21T07:17:06;15.55;;;8.40;;
52456;SDS011;38369;52.840;7.082;2022-08-21T07:19:32;13.45;;;8.25;;
52456;SDS011;38369;52.840;7.082;2022-08-21T07:21:59;14.07;;;7.80;;
52456;SDS011;38369;52.840;7.082;2022-08-21T07:24:26;14.00;;;8.70;;
52456;SDS011;38369;52.840;7.082;2022-08-21T07:26:53;13.75;;;8.82;;
52456;SDS011;38369;52.840;7.082;2022-08-21T07:29:19;10.43;;;7.45;;
52456;SDS011;38369;52.840;7.082;2022-08-21T07:31:45;15.55;;;8.43;;
52456;SDS011;38369;52.840;7.082;2022-08-21T07:34:11;16.00;;;7.97;;
52456;SDS011;38369;52.840;7.082;2022-08-21T07:36:37;15.80;;;7.50;;
52456;SDS011;38369;52.840;7.082;2022-08-21T07:39:03;15.60;;;8.00;;
52456;SDS011;38369;52.840;7.082;2022-08-21T07:41:29;16.70;;;8.20;;
52456;SDS011;38369;52.840;7.082;2022-08-21T07:43:57;16.05;;;8.05;;
52456;SDS011;38369;52.840;7.082;2022-08-21T07:46:23;11.68;;;7.38;;
52456;SDS011;38369;52.840;7.082;2022-08-21T07:48:49;14.50;;;7.03;;
52456;SDS011;38369;52.840;7.082;2022-08-21T07:51:16;10.57;;;6.75;;
52456;SDS011;38369;52.840;7.082;2022-08-21T07:53:47;14.35;;;8.07;;
52456;SDS011;38369;52.840;7.082;2022-08-21T07:56:13;11.32;;;7.20;;
52456;SDS011;38369;52.840;7.082;2022-08-21T07:58:39;10.20;;;5.75;;
52456;SDS011;38369;52.840;7.082;2022-08-21T08:01:06;13.98;;;6.28;;
52456;SDS011;38369;52.840;7.082;2022-08-21T08:03:32;14.65;;;5.95;;
52456;SDS011;38369;52.840;7.082;2022-08-21T08:05:58;15.30;;;4.82;;
52456;SDS011;38369;52.840;7.082;2022-08-21T08:08:24;11.70;;;4.45;;
52456;SDS011;38369;52.840;7.082;2022-08-21T08:10:50;13.35;;;4.75;;
52456;SDS011;38369;52.840;7.082;2022-08-21T08:13:17;10.20;;;3.70;;
52456;SDS011;38369;52.840;7.082;2022-08-21T08:15:43;10.05;;;3.47;;
52456;SDS011;38369;52.840;7.082;2022-08-21T08:18:09;9.00;;;2.97;;
52456;SDS011;38369;52.840;7.082;2022-08-21T08:20:35;7.00;;;2.85;;
52456;SDS011;38369;52.840;7.082;2022-08-21T08:23:01;6.75;;;3.25;;
52456;SDS011;38369;52.840;7.082;2022-08-21T08:25:27;10.38;;;2.95;;
52456;SDS011;38369;52.840;7.082;2022-08-21T08:27:53;9.73;;;3.00;;
52456;SDS011;38369;52.840;7.082;2022-08-21T08:30:20;13.38;;;3.03;;
52456;SDS011;38369;52.840;7.082;2022-08-21T08:32:47;7.30;;;2.75;;
52456;SDS011;38369;52.840;7.082;2022-08-21T08:35:14;8.65;;;2.97;;
52456;SDS011;38369;52.840;7.082;2022-08-21T08:37:40;11.00;;;2.67;;
52456;SDS011;38369;52.840;7.082;2022-08-21T08:42:54;9.63;;;3.08;;
52456;SDS011;38369;52.840;7.082;2022-08-21T08:45:20;12.50;;;3.30;;
52456;SDS011;38369;52.840;7.082;2022-08-21T08:47:52;9.38;;;3.08;;
52456;SDS011;38369;52.840;7.082;2022-08-21T08:50:28;7.53;;;2.58;;
52456;SDS011;38369;52.840;7.082;2022-08-21T08:53:04;12.35;;;3.55;;
52456;SDS011;38369;52.840;7.082;2022-08-21T08:55:40;16.17;;;3.67;;
52456;SDS011;38369;52.840;7.082;2022-08-21T08:58:08;9.05;;;3.40;;
52456;SDS011;38369;52.840;7.082;2022-08-21T09:00:34;10.07;;;3.72;;
52456;SDS011;38369;52.840;7.082;2022-08-21T09:03:01;11.05;;;4.53;;
52456;SDS011;38369;52.840;7.082;2022-08-21T09:13:25;6.50;;;3.50;;
52456;SDS011;38369;52.840;7.082;2022-08-21T09:16:09;8.40;;;4.85;;
52456;SDS011;38369;52.840;7.082;2022-08-21T09:21:41;8.88;;;4.45;;
52456;SDS011;38369;52.840;7.082;2022-08-21T09:24:22;11.05;;;4.03;;
52456;SDS011;38369;52.840;7.082;2022-08-21T09:29:21;8.10;;;4.33;;
52456;SDS011;38369;52.840;7.082;2022-08-21T09:31:49;8.77;;;4.10;;
52456;SDS011;38369;52.840;7.082;2022-08-21T09:34:24;6.13;;;3.55;;
52456;SDS011;38369;52.840;7.082;2022-08-21T09:36:50;6.70;;;3.88;;
52456;SDS011;38369;52.840;7.082;2022-08-21T09:39:30;9.40;;;3.70;;
52456;SDS011;38369;52.840;7.082;2022-08-21T09:44:27;8.65;;;3.83;;
52456;SDS011;38369;52.840;7.082;2022-08-21T09:46:53;10.80;;;3.33;;
52456;SDS011;38369;52.840;7.082;2022-08-21T09:49:26;9.73;;;3.33;;
52456;SDS011;38369;52.840;7.082;2022-08-21T09:51:53;8.10;;;3.55;;
52456;SDS011;38369;52.840;7.082;2022-08-21T09:54:20;11.60;;;4.22;;
52456;SDS011;38369;52.840;7.082;2022-08-21T09:56:58;6.78;;;3.00;;
52456;SDS011;38369;52.840;7.082;2022-08-21T09:59:44;7.28;;;3.20;;
52456;SDS011;38369;52.840;7.082;2022-08-21T10:02:22;9.15;;;3.72;;
52456;SDS011;38369;52.840;7.082;2022-08-21T10:04:55;6.68;;;2.65;;
52456;SDS011;38369;52.840;7.082;2022-08-21T10:07:23;7.55;;;3.55;;
52456;SDS011;38369;52.840;7.082;2022-08-21T10:12:27;5.30;;;2.70;;
52456;SDS011;38369;52.840;7.082;2022-08-21T10:17:45;9.60;;;2.40;;
52456;SDS011;38369;52.840;7.082;2022-08-21T10:20:17;4.45;;;2.33;;
52456;SDS011;38369;52.840;7.082;2022-08-21T10:23:02;7.43;;;2.50;;
52456;SDS011;38369;52.840;7.082;2022-08-21T10:25:33;8.13;;;2.53;;
52456;SDS011;38369;52.840;7.082;2022-08-21T10:28:17;8.90;;;2.88;;
52456;SDS011;38369;52.840;7.082;2022-08-21T10:38:45;8.63;;;2.80;;
52456;SDS011;38369;52.840;7.082;2022-08-21T10:59:47;5.28;;;2.13;;
52456;SDS011;38369;52.840;7.082;2022-08-21T11:02:20;5.47;;;1.92;;
52456;SDS011;38369;52.840;7.082;2022-08-21T11:04:50;6.72;;;1.60;;
52456;SDS011;38369;52.840;7.082;2022-08-21T11:07:32;5.47;;;1.88;;
52456;SDS011;38369;52.840;7.082;2022-08-21T11:10:02;9.40;;;2.67;;
52456;SDS011;38369;52.840;7.082;2022-08-21T11:12:34;6.93;;;2.20;;
52456;SDS011;38369;52.840;7.082;2022-08-21T11:15:23;6.05;;;1.63;;
52456;SDS011;38369;52.840;7.082;2022-08-21T11:17:52;6.43;;;1.88;;
52456;SDS011;38369;52.840;7.082;2022-08-21T11:22:48;7.50;;;2.55;;
52456;SDS011;38369;52.840;7.082;2022-08-21T11:28:02;5.07;;;2.03;;
52456;SDS011;38369;52.840;7.082;2022-08-21T11:30:33;3.80;;;1.70;;
52456;SDS011;38369;52.840;7.082;2022-08-21T11:33:21;6.72;;;1.92;;
52456;SDS011;38369;52.840;7.082;2022-08-21T11:35:58;9.18;;;3.35;;
52456;SDS011;38369;52.840;7.082;2022-08-21T11:45:54;6.85;;;1.83;;
52456;SDS011;38369;52.840;7.082;2022-08-21T11:48:34;7.00;;;1.98;;
52456;SDS011;38369;52.840;7.082;2022-08-21T11:51:04;7.95;;;2.10;;
52456;SDS011;38369;52.840;7.082;2022-08-21T11:53:39;6.82;;;2.15;;
52456;SDS011;38369;52.840;7.082;2022-08-21T11:56:21;5.82;;;1.70;;
52456;SDS011;38369;52.840;7.082;2022-08-21T11:58:58;6.35;;;1.80;;
52456;SDS011;38369;52.840;7.082;2022-08-21T12:01:25;6.75;;;1.48;;
52456;SDS011;38369;52.840;7.082;2022-08-21T12:06:30;5.53;;;1.65;;
52456;SDS011;38369;52.840;7.082;2022-08-21T12:08:58;4.67;;;1.97;;
52456;SDS011;38369;52.840;7.082;2022-08-21T12:11:25;3.88;;;1.98;;
52456;SDS011;38369;52.840;7.082;2022-08-21T12:14:24;6.10;;;1.50;;
52456;SDS011;38369;52.840;7.082;2022-08-21T12:16:45;8.02;;;2.30;;
52456;SDS011;38369;52.840;7.082;2022-08-21T12:26:54;6.25;;;1.88;;
52456;SDS011;38369;52.840;7.082;2022-08-21T12:29:35;5.10;;;1.58;;
52456;SDS011;38369;52.840;7.082;2022-08-21T12:34:42;5.93;;;1.83;;
52456;SDS011;38369;52.840;7.082;2022-08-21T12:37:15;4.82;;;1.60;;
52456;SDS011;38369;52.840;7.082;2022-08-21T12:39:44;6.70;;;1.55;;
52456;SDS011;38369;52.840;7.082;2022-08-21T12:42:16;7.57;;;1.85;;
52456;SDS011;38369;52.840;7.082;2022-08-21T12:44:54;8.20;;;1.77;;
52456;SDS011;38369;52.840;7.082;2022-08-21T12:49:54;7.18;;;1.67;;
52456;SDS011;38369;52.840;7.082;2022-08-21T12:52:30;2.72;;;1.30;;
52456;SDS011;38369;52.840;7.082;2022-08-21T12:54:58;4.97;;;1.58;;
52456;SDS011;38369;52.840;7.082;2022-08-21T12:57:26;4.72;;;1.52;;
52456;SDS011;38369;52.840;7.082;2022-08-21T13:00:00;7.63;;;1.48;;
52456;SDS011;38369;52.840;7.082;2022-08-21T13:02:28;5.40;;;1.80;;
52456;SDS011;38369;52.840;7.082;2022-08-21T13:04:55;5.57;;;1.58;;
52456;SDS011;38369;52.840;7.082;2022-08-21T13:07:29;6.00;;;1.63;;
52456;SDS011;38369;52.840;7.082;2022-08-21T13:09:58;4.30;;;1.70;;
52456;SDS011;38369;52.840;7.082;2022-08-21T13:12:24;5.28;;;1.83;;
52456;SDS011;38369;52.840;7.082;2022-08-21T13:14:51;4.85;;;1.35;;
52456;SDS011;38369;52.840;7.082;2022-08-21T13:17:19;5.13;;;1.27;;
52456;SDS011;38369;52.840;7.082;2022-08-21T13:19:53;5.32;;;1.40;;
52456;SDS011;38369;52.840;7.082;2022-08-21T13:22:19;5.35;;;1.38;;
52456;SDS011;38369;52.840;7.082;2022-08-21T13:24:46;6.93;;;1.92;;
52456;SDS011;38369;52.840;7.082;2022-08-21T13:27:20;4.75;;;1.67;;
52456;SDS011;38369;52.840;7.082;2022-08-21T13:29:47;4.63;;;1.02;;
52456;SDS011;38369;52.840;7.082;2022-08-21T13:32:18;5.00;;;1.88;;
52456;SDS011;38369;52.840;7.082;2022-08-21T13:34:45;6.38;;;1.40;;
52456;SDS011;38369;52.840;7.082;2022-08-21T13:37:11;7.88;;;2.13;;
52456;SDS011;38369;52.840;7.082;2022-08-21T13:39:37;3.28;;;1.60;;
52456;SDS011;38369;52.840;7.082;2022-08-21T13:42:04;5.97;;;1.77;;
52456;SDS011;38369;52.840;7.082;2022-08-21T13:44:35;6.53;;;1.77;;
52456;SDS011;38369;52.840;7.082;2022-08-21T13:47:02;4.60;;;1.75;;
52456;SDS011;38369;52.840;7.082;2022-08-21T13:49:30;6.38;;;1.70;;
52456;SDS011;38369;52.840;7.082;2022-08-21T13:51:57;6.85;;;1.75;;
52456;SDS011;38369;52.840;7.082;2022-08-21T13:54:25;4.40;;;1.77;;
52456;SDS011;38369;52.840;7.082;2022-08-21T13:56:52;3.50;;;1.50;;
52456;SDS011;38369;52.840;7.082;2022-08-21T13:59:29;5.40;;;1.80;;
52456;SDS011;38369;52.840;7.082;2022-08-21T14:01:57;3.97;;;1.45;;
52456;SDS011;38369;52.840;7.082;2022-08-21T14:06:59;6.68;;;1.58;;
52456;SDS011;38369;52.840;7.082;2022-08-21T14:11:52;8.23;;;2.88;;
52456;SDS011;38369;52.840;7.082;2022-08-21T14:14:29;6.35;;;1.83;;
52456;SDS011;38369;52.840;7.082;2022-08-21T14:17:00;5.85;;;1.95;;
52456;SDS011;38369;52.840;7.082;2022-08-21T14:19:37;6.72;;;2.30;;
52456;SDS011;38369;52.840;7.082;2022-08-21T14:24:48;9.52;;;2.78;;
52456;SDS011;38369;52.840;7.082;2022-08-21T14:27:16;6.25;;;1.80;;
52456;SDS011;38369;52.840;7.082;2022-08-21T14:29:42;5.20;;;2.08;;
52456;SDS011;38369;52.840;7.082;2022-08-21T14:32:11;7.05;;;2.00;;
52456;SDS011;38369;52.840;7.082;2022-08-21T14:34:38;5.97;;;1.83;;
52456;SDS011;38369;52.840;7.082;2022-08-21T14:37:04;6.53;;;2.60;;
52456;SDS011;38369;52.840;7.082;2022-08-21T14:39:30;7.82;;;2.30;;
52456;SDS011;38369;52.840;7.082;2022-08-21T14:41:56;6.53;;;2.35;;
52456;SDS011;38369;52.840;7.082;2022-08-21T14:44:23;5.95;;;2.53;;
52456;SDS011;38369;52.840;7.082;2022-08-21T14:46:49;7.30;;;2.50;;
52456;SDS011;38369;52.840;7.082;2022-08-21T14:49:15;6.25;;;2.00;;
52456;SDS011;38369;52.840;7.082;2022-08-21T14:51:41;4.75;;;2.22;;
52456;SDS011;38369;52.840;7.082;2022-08-21T14:54:07;9.48;;;2.88;;
52456;SDS011;38369;52.840;7.082;2022-08-21T14:56:33;7.25;;;2.50;;
52456;SDS011;38369;52.840;7.082;2022-08-21T14:59:02;6.43;;;2.58;;
52456;SDS011;38369;52.840;7.082;2022-08-21T15:01:29;8.40;;;1.90;;
52456;SDS011;38369;52.840;7.082;2022-08-21T15:03:55;6.28;;;2.53;;
52456;SDS011;38369;52.840;7.082;2022-08-21T15:06:21;9.45;;;2.53;;
52456;SDS011;38369;52.840;7.082;2022-08-21T15:08:47;7.93;;;2.00;;
52456;SDS011;38369;52.840;7.082;2022-08-21T15:11:16;7.50;;;2.72;;
52456;SDS011;38369;52.840;7.082;2022-08-21T15:13:42;9.00;;;2.77;;
52456;SDS011;38369;52.840;7.082;2022-08-21T15:16:09;6.00;;;2.65;;
52456;SDS011;38369;52.840;7.082;2022-08-21T15:18:36;7.28;;;3.20;;
52456;SDS011;38369;52.840;7.082;2022-08-21T15:21:02;9.65;;;4.55;;
52456;SDS011;38369;52.840;7.082;2022-08-21T15:23:28;7.45;;;4.13;;
52456;SDS011;38369;52.840;7.082;2022-08-21T15:25:54;8.73;;;4.43;;
52456;SDS011;38369;52.840;7.082;2022-08-21T15:28:23;5.43;;;2.30;;
52456;SDS011;38369;52.840;7.082;2022-08-21T15:30:49;7.05;;;2.40;;
52456;SDS011;38369;52.840;7.082;2022-08-21T15:33:16;5.57;;;2.63;;
52456;SDS011;38369;52.840;7.082;2022-08-21T15:35:43;7.55;;;2.83;;
52456;SDS011;38369;52.840;7.082;2022-08-21T15:38:11;6.45;;;2.50;;
52456;SDS011;38369;52.840;7.082;2022-08-21T15:40:37;7.22;;;2.65;;
52456;SDS011;38369;52.840;7.082;2022-08-21T15:43:03;8.40;;;2.88;;
52456;SDS011;38369;52.840;7.082;2022-08-21T15:45:30;11.38;;;2.63;;
52456;SDS011;38369;52.840;7.082;2022-08-21T15:47:56;9.30;;;2.60;;
52456;SDS011;38369;52.840;7.082;2022-08-21T15:50:23;9.07;;;2.75;;
52456;SDS011;38369;52.840;7.082;2022-08-21T15:52:49;6.90;;;2.42;;
52456;SDS011;38369;52.840;7.082;2022-08-21T15:55:15;7.93;;;2.70;;
52456;SDS011;38369;52.840;7.082;2022-08-21T15:57:42;6.38;;;2.13;;
52456;SDS011;38369;52.840;7.082;2022-08-21T16:00:13;6.63;;;2.60;;
52456;SDS011;38369;52.840;7.082;2022-08-21T16:02:41;6.18;;;2.60;;
52456;SDS011;38369;52.840;7.082;2022-08-21T16:05:08;6.80;;;2.00;;
52456;SDS011;38369;52.840;7.082;2022-08-21T16:07:36;5.95;;;2.35;;
52456;SDS011;38369;52.840;7.082;2022-08-21T16:10:03;5.45;;;2.55;;